Главная страница
METAR-TAF:

METAR-TAF

Аэропорты :

Дакар, Сенегал

широта: 14-44N, долгота: 017-30W, высота над уровнем моря: 27 м

Текущие метеонаблюдения

Эта сводка был подготовлена 54 минут назад, в 07:00 UTC
Ветер 12 Узел от северо-северо-восточный
Температура 21°C
Влажность 64%
Давление 1015 hPa
Видимость: 8000 м

METAR: GOOY 140700Z 02012KT 8000 NSC 21/14 Q1015

Время: 07:54 (07:54 UTC)

Прогноз

Эта сводка был подготовлена 2 часа и 24 минут назад, в 05:30 UTC
Прогноз действительный с 14-го 06 UTC до 15-го 12 UTC
Ветер 16 Узел от северо-северо-восточный
Видимость: 8000 м

TAF: GOOY 140530Z 1406/1512 03016KT 8000 NSC

Метеонаблюдения и прогнозы для более 4000 аэропортов (сводки METAR и TAF).

Имеющиеся станции представлены на карте желтыми и красными точками.

Чтобы увидеть название станции, наведите на нее мышь.

Затем щелкните, чтобы увидеть метеонаблюдения и метеопрогнозы.

Управление картой: чтобы увеличить масштаб, щелкните зеленые кнопки с черным крестиком; чтобы уменьшить масштаб, щелкните зеленую кнопку с тире; для просмотра соседних карт щелкайте зеленые стрелки.


METAR-TAF: